sensor_id;sensor_type;location;lat;lon;timestamp;temperature;humidity
12504;DHT22;6316;48.118;-1.690;2022-09-27T00:00:39;13.90;99.90
12504;DHT22;6316;48.118;-1.690;2022-09-27T00:03:10;13.90;99.90
12504;DHT22;6316;48.118;-1.690;2022-09-27T00:05:36;14.00;99.90
12504;DHT22;6316;48.118;-1.690;2022-09-27T00:08:02;14.00;99.90
12504;DHT22;6316;48.118;-1.690;2022-09-27T00:10:28;14.00;99.90
12504;DHT22;6316;48.118;-1.690;2022-09-27T00:12:55;13.90;99.90
12504;DHT22;6316;48.118;-1.690;2022-09-27T00:15:21;13.90;99.90
12504;DHT22;6316;48.118;-1.690;2022-09-27T00:17:46;13.90;99.90
12504;DHT22;6316;48.118;-1.690;2022-09-27T00:20:17;13.90;99.90
12504;DHT22;6316;48.118;-1.690;2022-09-27T00:22:43;13.90;99.90
12504;DHT22;6316;48.118;-1.690;2022-09-27T00:25:09;14.00;99.90
12504;DHT22;6316;48.118;-1.690;2022-09-27T00:27:35;14.00;99.90
12504;DHT22;6316;48.118;-1.690;2022-09-27T00:30:00;14.00;99.90
12504;DHT22;6316;48.118;-1.690;2022-09-27T00:32:26;14.00;99.90
12504;DHT22;6316;48.118;-1.690;2022-09-27T00:34:51;14.00;99.90
12504;DHT22;6316;48.118;-1.690;2022-09-27T00:37:17;14.00;99.90
12504;DHT22;6316;48.118;-1.690;2022-09-27T00:39:43;14.00;99.90
12504;DHT22;6316;48.118;-1.690;2022-09-27T00:42:10;14.00;99.90
12504;DHT22;6316;48.118;-1.690;2022-09-27T00:49:54;13.90;99.90
12504;DHT22;6316;48.118;-1.690;2022-09-27T00:52:26;13.90;99.90
12504;DHT22;6316;48.118;-1.690;2022-09-27T00:54:58;13.90;99.90
12504;DHT22;6316;48.118;-1.690;2022-09-27T00:57:27;13.90;99.90
12504;DHT22;6316;48.118;-1.690;2022-09-27T01:00:03;13.90;99.90
12504;DHT22;6316;48.118;-1.690;2022-09-27T01:02:31;13.90;99.90
12504;DHT22;6316;48.118;-1.690;2022-09-27T01:04:57;13.90;99.90
12504;DHT22;6316;48.118;-1.690;2022-09-27T01:07:23;13.90;99.90
12504;DHT22;6316;48.118;-1.690;2022-09-27T01:09:49;13.90;99.90
12504;DHT22;6316;48.118;-1.690;2022-09-27T01:12:28;13.90;99.90
12504;DHT22;6316;48.118;-1.690;2022-09-27T01:15:35;13.90;99.90
12504;DHT22;6316;48.118;-1.690;2022-09-27T01:27:14;13.70;99.90
12504;DHT22;6316;48.118;-1.690;2022-09-27T01:38:22;13.70;99.90
12504;DHT22;6316;48.118;-1.690;2022-09-27T01:40:53;13.70;99.90
12504;DHT22;6316;48.118;-1.690;2022-09-27T01:43:29;13.70;99.90
12504;DHT22;6316;48.118;-1.690;2022-09-27T01:46:06;13.70;99.90
12504;DHT22;6316;48.118;-1.690;2022-09-27T01:48:38;13.70;99.90
12504;DHT22;6316;48.118;-1.690;2022-09-27T01:51:34;13.70;99.90
12504;DHT22;6316;48.118;-1.690;2022-09-27T01:54:00;13.70;99.90
12504;DHT22;6316;48.118;-1.690;2022-09-27T01:56:37;13.60;99.90
12504;DHT22;6316;48.118;-1.690;2022-09-27T02:01:47;13.60;99.90
12504;DHT22;6316;48.118;-1.690;2022-09-27T02:04:16;13.60;99.90
12504;DHT22;6316;48.118;-1.690;2022-09-27T02:06:47;13.60;99.90
12504;DHT22;6316;48.118;-1.690;2022-09-27T02:09:17;13.70;99.90
12504;DHT22;6316;48.118;-1.690;2022-09-27T02:11:49;13.70;99.90
12504;DHT22;6316;48.118;-1.690;2022-09-27T02:14:18;13.70;99.90
12504;DHT22;6316;48.118;-1.690;2022-09-27T02:19:54;13.80;99.90
12504;DHT22;6316;48.118;-1.690;2022-09-27T02:22:30;13.80;99.90
12504;DHT22;6316;48.118;-1.690;2022-09-27T02:27:54;13.80;99.90
12504;DHT22;6316;48.118;-1.690;2022-09-27T02:30:22;13.80;99.90
12504;DHT22;6316;48.118;-1.690;2022-09-27T02:32:47;13.90;99.90
12504;DHT22;6316;48.118;-1.690;2022-09-27T02:37:39;13.90;99.90
12504;DHT22;6316;48.118;-1.690;2022-09-27T02:40:05;13.90;99.90
12504;DHT22;6316;48.118;-1.690;2022-09-27T02:42:32;13.90;99.90
12504;DHT22;6316;48.118;-1.690;2022-09-27T02:44:58;13.90;99.90
12504;DHT22;6316;48.118;-1.690;2022-09-27T02:50:56;13.80;99.90
12504;DHT22;6316;48.118;-1.690;2022-09-27T02:53:52;13.80;99.90
12504;DHT22;6316;48.118;-1.690;2022-09-27T02:59:28;13.80;99.90
12504;DHT22;6316;48.118;-1.690;2022-09-27T03:04:56;13.80;99.90
12504;DHT22;6316;48.118;-1.690;2022-09-27T03:07:24;13.80;99.90
12504;DHT22;6316;48.118;-1.690;2022-09-27T03:09:51;13.80;99.90
12504;DHT22;6316;48.118;-1.690;2022-09-27T03:12:18;13.80;99.90
12504;DHT22;6316;48.118;-1.690;2022-09-27T03:14:50;13.80;99.90
12504;DHT22;6316;48.118;-1.690;2022-09-27T03:17:16;13.80;99.90
12504;DHT22;6316;48.118;-1.690;2022-09-27T03:19:42;13.80;99.90
12504;DHT22;6316;48.118;-1.690;2022-09-27T03:22:07;13.80;99.90
12504;DHT22;6316;48.118;-1.690;2022-09-27T03:24:33;13.80;99.90
12504;DHT22;6316;48.118;-1.690;2022-09-27T03:26:59;13.70;99.90
12504;DHT22;6316;48.118;-1.690;2022-09-27T03:29:24;13.70;99.90
12504;DHT22;6316;48.118;-1.690;2022-09-27T03:31:50;13.70;99.90
12504;DHT22;6316;48.118;-1.690;2022-09-27T03:34:16;13.70;99.90
12504;DHT22;6316;48.118;-1.690;2022-09-27T03:36:41;13.70;99.90
12504;DHT22;6316;48.118;-1.690;2022-09-27T03:39:07;13.70;99.90
12504;DHT22;6316;48.118;-1.690;2022-09-27T03:41:33;13.70;99.90
12504;DHT22;6316;48.118;-1.690;2022-09-27T03:43:59;13.70;99.90
12504;DHT22;6316;48.118;-1.690;2022-09-27T03:46:25;13.70;99.90
12504;DHT22;6316;48.118;-1.690;2022-09-27T03:48:51;13.70;99.90
12504;DHT22;6316;48.118;-1.690;2022-09-27T03:51:17;13.60;99.90
12504;DHT22;6316;48.118;-1.690;2022-09-27T03:53:42;13.60;99.90
12504;DHT22;6316;48.118;-1.690;2022-09-27T03:56:08;13.50;99.90
12504;DHT22;6316;48.118;-1.690;2022-09-27T03:58:34;13.50;99.90
12504;DHT22;6316;48.118;-1.690;2022-09-27T04:01:00;13.40;99.90
12504;DHT22;6316;48.118;-1.690;2022-09-27T04:03:26;13.40;99.90
12504;DHT22;6316;48.118;-1.690;2022-09-27T04:05:54;13.40;99.90
12504;DHT22;6316;48.118;-1.690;2022-09-27T04:08:20;13.40;99.90
12504;DHT22;6316;48.118;-1.690;2022-09-27T04:10:46;13.40;99.90
12504;DHT22;6316;48.118;-1.690;2022-09-27T04:13:12;13.40;99.90
12504;DHT22;6316;48.118;-1.690;2022-09-27T04:15:38;13.40;99.90
12504;DHT22;6316;48.118;-1.690;2022-09-27T04:18:05;13.40;99.90
12504;DHT22;6316;48.118;-1.690;2022-09-27T04:20:31;13.40;99.90
12504;DHT22;6316;48.118;-1.690;2022-09-27T04:22:57;13.40;99.90
12504;DHT22;6316;48.118;-1.690;2022-09-27T04:25:22;13.40;99.90
12504;DHT22;6316;48.118;-1.690;2022-09-27T04:27:48;13.40;99.90
12504;DHT22;6316;48.118;-1.690;2022-09-27T04:30:20;13.40;99.90
12504;DHT22;6316;48.118;-1.690;2022-09-27T04:32:46;13.40;99.90
12504;DHT22;6316;48.118;-1.690;2022-09-27T04:35:13;13.40;99.90
12504;DHT22;6316;48.118;-1.690;2022-09-27T04:37:58;13.40;99.90
12504;DHT22;6316;48.118;-1.690;2022-09-27T04:40:24;13.40;99.90
12504;DHT22;6316;48.118;-1.690;2022-09-27T04:42:50;13.40;99.90
12504;DHT22;6316;48.118;-1.690;2022-09-27T04:45:17;13.40;99.90
12504;DHT22;6316;48.118;-1.690;2022-09-27T04:47:44;13.40;99.90
12504;DHT22;6316;48.118;-1.690;2022-09-27T04:50:11;13.40;99.90
12504;DHT22;6316;48.118;-1.690;2022-09-27T04:52:37;13.40;99.90
12504;DHT22;6316;48.118;-1.690;2022-09-27T04:55:03;13.40;99.90
12504;DHT22;6316;48.118;-1.690;2022-09-27T04:57:29;13.50;99.90
12504;DHT22;6316;48.118;-1.690;2022-09-27T04:59:55;13.50;99.90
12504;DHT22;6316;48.118;-1.690;2022-09-27T05:02:20;13.50;99.90
12504;DHT22;6316;48.118;-1.690;2022-09-27T05:04:46;13.50;99.90
12504;DHT22;6316;48.118;-1.690;2022-09-27T05:07:11;13.50;99.90
12504;DHT22;6316;48.118;-1.690;2022-09-27T05:09:37;13.40;99.90
12504;DHT22;6316;48.118;-1.690;2022-09-27T05:12:03;13.40;99.90
12504;DHT22;6316;48.118;-1.690;2022-09-27T05:14:31;13.40;99.90
12504;DHT22;6316;48.118;-1.690;2022-09-27T05:16:57;13.40;99.90
12504;DHT22;6316;48.118;-1.690;2022-09-27T05:19:23;13.40;99.90
12504;DHT22;6316;48.118;-1.690;2022-09-27T05:21:48;13.40;99.90
12504;DHT22;6316;48.118;-1.690;2022-09-27T05:24:15;13.30;99.90
12504;DHT22;6316;48.118;-1.690;2022-09-27T05:26:40;13.30;99.90
12504;DHT22;6316;48.118;-1.690;2022-09-27T05:29:06;13.20;99.90
12504;DHT22;6316;48.118;-1.690;2022-09-27T05:31:32;13.20;99.90
12504;DHT22;6316;48.118;-1.690;2022-09-27T05:33:57;13.20;99.90
12504;DHT22;6316;48.118;-1.690;2022-09-27T05:36:23;13.20;99.90
12504;DHT22;6316;48.118;-1.690;2022-09-27T05:38:49;13.20;99.90
12504;DHT22;6316;48.118;-1.690;2022-09-27T05:41:14;13.30;99.90
12504;DHT22;6316;48.118;-1.690;2022-09-27T05:43:40;13.30;99.90
12504;DHT22;6316;48.118;-1.690;2022-09-27T05:46:06;13.30;99.90
12504;DHT22;6316;48.118;-1.690;2022-09-27T05:48:32;13.30;99.90
12504;DHT22;6316;48.118;-1.690;2022-09-27T05:50:57;13.30;99.90
12504;DHT22;6316;48.118;-1.690;2022-09-27T05:53:23;13.30;99.90
12504;DHT22;6316;48.118;-1.690;2022-09-27T05:55:49;13.40;99.90
12504;DHT22;6316;48.118;-1.690;2022-09-27T05:58:15;13.40;99.90
12504;DHT22;6316;48.118;-1.690;2022-09-27T06:00:42;13.40;99.90
12504;DHT22;6316;48.118;-1.690;2022-09-27T06:03:10;13.40;99.90
12504;DHT22;6316;48.118;-1.690;2022-09-27T06:05:38;13.40;99.90
12504;DHT22;6316;48.118;-1.690;2022-09-27T06:08:09;13.40;99.90
12504;DHT22;6316;48.118;-1.690;2022-09-27T06:10:36;13.50;99.90
12504;DHT22;6316;48.118;-1.690;2022-09-27T06:13:04;13.50;99.90
12504;DHT22;6316;48.118;-1.690;2022-09-27T06:15:31;13.50;99.90
12504;DHT22;6316;48.118;-1.690;2022-09-27T06:18:03;13.50;99.90
12504;DHT22;6316;48.118;-1.690;2022-09-27T06:20:29;13.50;99.90
12504;DHT22;6316;48.118;-1.690;2022-09-27T06:23:12;13.50;99.90
12504;DHT22;6316;48.118;-1.690;2022-09-27T06:25:39;13.50;99.90
12504;DHT22;6316;48.118;-1.690;2022-09-27T06:28:04;13.50;99.90
12504;DHT22;6316;48.118;-1.690;2022-09-27T06:30:31;13.60;99.90
12504;DHT22;6316;48.118;-1.690;2022-09-27T06:33:01;13.60;99.90
12504;DHT22;6316;48.118;-1.690;2022-09-27T06:35:28;13.60;99.90
12504;DHT22;6316;48.118;-1.690;2022-09-27T06:37:54;13.70;99.90
12504;DHT22;6316;48.118;-1.690;2022-09-27T06:40:21;13.70;99.90
12504;DHT22;6316;48.118;-1.690;2022-09-27T06:42:47;13.70;99.90
12504;DHT22;6316;48.118;-1.690;2022-09-27T06:45:14;13.70;99.90
12504;DHT22;6316;48.118;-1.690;2022-09-27T06:47:40;13.70;99.90
12504;DHT22;6316;48.118;-1.690;2022-09-27T06:50:06;13.80;99.90
12504;DHT22;6316;48.118;-1.690;2022-09-27T06:52:33;13.80;99.90
12504;DHT22;6316;48.118;-1.690;2022-09-27T06:55:00;13.80;99.90
12504;DHT22;6316;48.118;-1.690;2022-09-27T06:57:25;13.80;99.90
12504;DHT22;6316;48.118;-1.690;2022-09-27T07:00:23;13.80;99.90
12504;DHT22;6316;48.118;-1.690;2022-09-27T07:02:51;13.90;99.90
12504;DHT22;6316;48.118;-1.690;2022-09-27T07:05:17;13.90;99.90
12504;DHT22;6316;48.118;-1.690;2022-09-27T07:07:43;13.90;99.90
12504;DHT22;6316;48.118;-1.690;2022-09-27T07:10:10;14.00;99.90
12504;DHT22;6316;48.118;-1.690;2022-09-27T07:12:35;14.00;99.90
12504;DHT22;6316;48.118;-1.690;2022-09-27T07:15:02;14.00;99.90
12504;DHT22;6316;48.118;-1.690;2022-09-27T07:17:28;14.10;99.90
12504;DHT22;6316;48.118;-1.690;2022-09-27T07:19:54;14.10;99.90
12504;DHT22;6316;48.118;-1.690;2022-09-27T07:22:20;14.20;99.90
12504;DHT22;6316;48.118;-1.690;2022-09-27T07:24:46;14.30;99.90
12504;DHT22;6316;48.118;-1.690;2022-09-27T07:27:12;14.40;99.90
12504;DHT22;6316;48.118;-1.690;2022-09-27T07:29:38;14.40;99.90
12504;DHT22;6316;48.118;-1.690;2022-09-27T07:32:04;14.40;99.90
12504;DHT22;6316;48.118;-1.690;2022-09-27T07:34:29;14.40;99.90
12504;DHT22;6316;48.118;-1.690;2022-09-27T07:37:00;14.50;99.90
12504;DHT22;6316;48.118;-1.690;2022-09-27T07:39:28;14.50;99.90
12504;DHT22;6316;48.118;-1.690;2022-09-27T07:41:54;14.50;99.90
12504;DHT22;6316;48.118;-1.690;2022-09-27T07:44:19;14.60;99.90
12504;DHT22;6316;48.118;-1.690;2022-09-27T07:46:45;14.60;99.90
12504;DHT22;6316;48.118;-1.690;2022-09-27T07:49:11;14.50;99.90
12504;DHT22;6316;48.118;-1.690;2022-09-27T07:51:36;14.50;99.90
12504;DHT22;6316;48.118;-1.690;2022-09-27T07:54:02;14.50;99.90
12504;DHT22;6316;48.118;-1.690;2022-09-27T07:56:28;14.50;99.90
12504;DHT22;6316;48.118;-1.690;2022-09-27T07:58:54;14.60;99.90
12504;DHT22;6316;48.118;-1.690;2022-09-27T08:01:20;14.60;99.90
12504;DHT22;6316;48.118;-1.690;2022-09-27T08:03:46;14.60;99.90
12504;DHT22;6316;48.118;-1.690;2022-09-27T08:06:11;14.70;99.90
12504;DHT22;6316;48.118;-1.690;2022-09-27T08:08:37;14.80;99.90
12504;DHT22;6316;48.118;-1.690;2022-09-27T08:11:11;15.10;99.90
12504;DHT22;6316;48.118;-1.690;2022-09-27T08:13:39;15.30;99.90
12504;DHT22;6316;48.118;-1.690;2022-09-27T08:16:05;15.50;99.90
12504;DHT22;6316;48.118;-1.690;2022-09-27T08:18:30;15.50;99.90
12504;DHT22;6316;48.118;-1.690;2022-09-27T08:20:57;15.50;99.90
12504;DHT22;6316;48.118;-1.690;2022-09-27T08:23:23;15.50;99.90
12504;DHT22;6316;48.118;-1.690;2022-09-27T08:25:55;15.50;99.90
12504;DHT22;6316;48.118;-1.690;2022-09-27T08:28:24;15.50;99.90
12504;DHT22;6316;48.118;-1.690;2022-09-27T08:30:50;15.60;99.90
12504;DHT22;6316;48.118;-1.690;2022-09-27T08:33:16;15.70;99.90
12504;DHT22;6316;48.118;-1.690;2022-09-27T08:35:42;15.80;99.90
12504;DHT22;6316;48.118;-1.690;2022-09-27T08:38:08;15.80;99.90
12504;DHT22;6316;48.118;-1.690;2022-09-27T08:40:54;15.80;99.90
12504;DHT22;6316;48.118;-1.690;2022-09-27T08:43:36;15.80;99.90
12504;DHT22;6316;48.118;-1.690;2022-09-27T08:51:58;16.10;99.90
12504;DHT22;6316;48.118;-1.690;2022-09-27T08:54:27;16.10;99.90
12504;DHT22;6316;48.118;-1.690;2022-09-27T08:57:01;16.20;99.90
12504;DHT22;6316;48.118;-1.690;2022-09-27T08:59:33;16.30;99.90
12504;DHT22;6316;48.118;-1.690;2022-09-27T09:02:00;16.40;99.90
12504;DHT22;6316;48.118;-1.690;2022-09-27T09:04:36;16.40;99.90
12504;DHT22;6316;48.118;-1.690;2022-09-27T09:13:48;16.50;99.90
12504;DHT22;6316;48.118;-1.690;2022-09-27T09:30:13;16.60;99.90
12504;DHT22;6316;48.118;-1.690;2022-09-27T09:35:25;16.70;99.90
12504;DHT22;6316;48.118;-1.690;2022-09-27T09:37:57;16.70;99.90
12504;DHT22;6316;48.118;-1.690;2022-09-27T09:43:17;16.80;99.90
12504;DHT22;6316;48.118;-1.690;2022-09-27T09:45:50;16.90;99.90
12504;DHT22;6316;48.118;-1.690;2022-09-27T09:48:43;17.10;99.90
12504;DHT22;6316;48.118;-1.690;2022-09-27T09:51:19;17.30;99.90
12504;DHT22;6316;48.118;-1.690;2022-09-27T09:53:53;17.50;99.90
12504;DHT22;6316;48.118;-1.690;2022-09-27T09:56:25;17.70;99.90
12504;DHT22;6316;48.118;-1.690;2022-09-27T09:58:56;17.80;99.90
12504;DHT22;6316;48.118;-1.690;2022-09-27T10:01:39;18.00;99.90
12504;DHT22;6316;48.118;-1.690;2022-09-27T10:04:06;18.10;99.90
12504;DHT22;6316;48.118;-1.690;2022-09-27T10:06:31;18.20;99.90
12504;DHT22;6316;48.118;-1.690;2022-09-27T10:08:58;18.30;99.90
12504;DHT22;6316;48.118;-1.690;2022-09-27T10:11:26;18.30;99.90
12504;DHT22;6316;48.118;-1.690;2022-09-27T10:13:53;18.30;99.90
12504;DHT22;6316;48.118;-1.690;2022-09-27T10:16:25;18.30;99.90
12504;DHT22;6316;48.118;-1.690;2022-09-27T10:18:56;18.30;99.90
12504;DHT22;6316;48.118;-1.690;2022-09-27T10:21:28;18.30;99.90
12504;DHT22;6316;48.118;-1.690;2022-09-27T10:24:36;18.30;99.90
12504;DHT22;6316;48.118;-1.690;2022-09-27T10:26:59;18.30;99.90
12504;DHT22;6316;48.118;-1.690;2022-09-27T10:29:33;18.30;99.90
12504;DHT22;6316;48.118;-1.690;2022-09-27T10:32:01;18.30;99.90
12504;DHT22;6316;48.118;-1.690;2022-09-27T10:37:17;18.60;99.90
12504;DHT22;6316;48.118;-1.690;2022-09-27T10:39:45;18.70;99.90
12504;DHT22;6316;48.118;-1.690;2022-09-27T10:44:56;18.90;99.90
12504;DHT22;6316;48.118;-1.690;2022-09-27T10:47:23;18.90;99.90
12504;DHT22;6316;48.118;-1.690;2022-09-27T10:49:51;18.90;99.90
12504;DHT22;6316;48.118;-1.690;2022-09-27T10:52:22;18.80;99.90
12504;DHT22;6316;48.118;-1.690;2022-09-27T10:55:07;18.70;99.90
12504;DHT22;6316;48.118;-1.690;2022-09-27T10:57:39;18.70;99.90
12504;DHT22;6316;48.118;-1.690;2022-09-27T11:00:25;18.60;99.90
12504;DHT22;6316;48.118;-1.690;2022-09-27T11:03:01;18.60;99.90
12504;DHT22;6316;48.118;-1.690;2022-09-27T11:05:32;18.50;99.90
12504;DHT22;6316;48.118;-1.690;2022-09-27T11:11:00;18.40;99.90
12504;DHT22;6316;48.118;-1.690;2022-09-27T11:13:27;18.30;99.90
12504;DHT22;6316;48.118;-1.690;2022-09-27T11:26:38;18.70;99.90
12504;DHT22;6316;48.118;-1.690;2022-09-27T11:45:59;18.70;99.90
12504;DHT22;6316;48.118;-1.690;2022-09-27T11:51:07;18.60;99.90
12504;DHT22;6316;48.118;-1.690;2022-09-27T11:54:04;18.70;99.90
12504;DHT22;6316;48.118;-1.690;2022-09-27T12:08:07;18.90;99.90
12504;DHT22;6316;48.118;-1.690;2022-09-27T12:10:39;18.90;99.90
12504;DHT22;6316;48.118;-1.690;2022-09-27T12:13:12;18.90;99.90
12504;DHT22;6316;48.118;-1.690;2022-09-27T12:15:41;19.00;99.90
12504;DHT22;6316;48.118;-1.690;2022-09-27T12:18:30;19.00;99.90
12504;DHT22;6316;48.118;-1.690;2022-09-27T12:21:02;19.10;99.90
12504;DHT22;6316;48.118;-1.690;2022-09-27T12:23:46;19.10;99.90
12504;DHT22;6316;48.118;-1.690;2022-09-27T12:26:30;19.10;99.90
12504;DHT22;6316;48.118;-1.690;2022-09-27T12:29:13;19.00;99.90
12504;DHT22;6316;48.118;-1.690;2022-09-27T12:31:56;19.00;99.90
12504;DHT22;6316;48.118;-1.690;2022-09-27T12:37:34;18.90;99.90
12504;DHT22;6316;48.118;-1.690;2022-09-27T12:40:07;19.00;99.90
12504;DHT22;6316;48.118;-1.690;2022-09-27T12:42:44;18.90;99.90
12504;DHT22;6316;48.118;-1.690;2022-09-27T12:45:14;19.00;99.90
12504;DHT22;6316;48.118;-1.690;2022-09-27T12:47:56;19.00;99.90
12504;DHT22;6316;48.118;-1.690;2022-09-27T12:50:47;19.10;99.90
12504;DHT22;6316;48.118;-1.690;2022-09-27T12:53:22;19.20;99.90
12504;DHT22;6316;48.118;-1.690;2022-09-27T12:56:05;19.20;99.90
12504;DHT22;6316;48.118;-1.690;2022-09-27T13:01:39;19.20;99.90
12504;DHT22;6316;48.118;-1.690;2022-09-27T13:09:49;19.00;99.90
12504;DHT22;6316;48.118;-1.690;2022-09-27T13:12:22;18.90;99.90
12504;DHT22;6316;48.118;-1.690;2022-09-27T13:18:00;18.90;99.90
12504;DHT22;6316;48.118;-1.690;2022-09-27T13:25:53;19.00;99.90
12504;DHT22;6316;48.118;-1.690;2022-09-27T13:31:14;19.00;99.90
12504;DHT22;6316;48.118;-1.690;2022-09-27T13:33:51;18.90;99.90
12504;DHT22;6316;48.118;-1.690;2022-09-27T13:47:31;18.80;99.90
12504;DHT22;6316;48.118;-1.690;2022-09-27T13:50:25;18.80;99.90
12504;DHT22;6316;48.118;-1.690;2022-09-27T13:58:43;18.70;99.90
12504;DHT22;6316;48.118;-1.690;2022-09-27T14:01:32;18.70;99.90
12504;DHT22;6316;48.118;-1.690;2022-09-27T14:04:26;18.70;99.90
12504;DHT22;6316;48.118;-1.690;2022-09-27T14:06:59;18.70;99.90
12504;DHT22;6316;48.118;-1.690;2022-09-27T14:09:29;18.70;99.90
12504;DHT22;6316;48.118;-1.690;2022-09-27T14:11:58;18.70;99.90
12504;DHT22;6316;48.118;-1.690;2022-09-27T14:14:28;18.70;99.90
12504;DHT22;6316;48.118;-1.690;2022-09-27T14:16:56;18.60;99.90
12504;DHT22;6316;48.118;-1.690;2022-09-27T14:19:23;18.50;99.90
12504;DHT22;6316;48.118;-1.690;2022-09-27T14:21:53;18.50;99.90
12504;DHT22;6316;48.118;-1.690;2022-09-27T14:24:42;18.50;99.90
12504;DHT22;6316;48.118;-1.690;2022-09-27T14:27:35;18.50;99.90
12504;DHT22;6316;48.118;-1.690;2022-09-27T14:33:24;18.60;99.90
12504;DHT22;6316;48.118;-1.690;2022-09-27T14:35:51;18.60;99.90
12504;DHT22;6316;48.118;-1.690;2022-09-27T14:38:35;18.60;99.90
12504;DHT22;6316;48.118;-1.690;2022-09-27T14:41:02;18.50;99.90
12504;DHT22;6316;48.118;-1.690;2022-09-27T14:43:29;18.50;99.90
12504;DHT22;6316;48.118;-1.690;2022-09-27T14:45:58;18.40;99.90
12504;DHT22;6316;48.118;-1.690;2022-09-27T14:48:30;18.30;99.90
12504;DHT22;6316;48.118;-1.690;2022-09-27T14:53:41;18.30;99.90
12504;DHT22;6316;48.118;-1.690;2022-09-27T14:56:14;18.30;99.90
12504;DHT22;6316;48.118;-1.690;2022-09-27T14:58:43;18.20;99.90
12504;DHT22;6316;48.118;-1.690;2022-09-27T15:01:16;18.20;99.90
12504;DHT22;6316;48.118;-1.690;2022-09-27T15:03:44;18.20;99.90
12504;DHT22;6316;48.118;-1.690;2022-09-27T15:06:11;18.20;99.90
12504;DHT22;6316;48.118;-1.690;2022-09-27T15:08:37;18.20;99.90
12504;DHT22;6316;48.118;-1.690;2022-09-27T15:11:04;18.20;99.90
12504;DHT22;6316;48.118;-1.690;2022-09-27T15:13:32;18.20;99.90
12504;DHT22;6316;48.118;-1.690;2022-09-27T15:15:59;18.10;99.90
12504;DHT22;6316;48.118;-1.690;2022-09-27T15:18:39;18.10;99.90
12504;DHT22;6316;48.118;-1.690;2022-09-27T15:21:11;18.00;99.90
12504;DHT22;6316;48.118;-1.690;2022-09-27T15:23:42;18.00;99.90
12504;DHT22;6316;48.118;-1.690;2022-09-27T15:28:36;17.90;99.90
12504;DHT22;6316;48.118;-1.690;2022-09-27T15:31:06;17.90;99.90
12504;DHT22;6316;48.118;-1.690;2022-09-27T15:33:32;17.80;99.90
12504;DHT22;6316;48.118;-1.690;2022-09-27T15:36:04;17.90;99.90
12504;DHT22;6316;48.118;-1.690;2022-09-27T15:38:37;17.80;99.90
12504;DHT22;6316;48.118;-1.690;2022-09-27T15:41:15;17.80;99.90
12504;DHT22;6316;48.118;-1.690;2022-09-27T15:43:49;17.80;99.90
12504;DHT22;6316;48.118;-1.690;2022-09-27T15:46:30;17.80;99.90
12504;DHT22;6316;48.118;-1.690;2022-09-27T15:52:02;17.70;99.90
12504;DHT22;6316;48.118;-1.690;2022-09-27T15:54:30;17.70;99.90
12504;DHT22;6316;48.118;-1.690;2022-09-27T15:57:01;17.60;99.90
12504;DHT22;6316;48.118;-1.690;2022-09-27T15:59:33;17.60;99.90
12504;DHT22;6316;48.118;-1.690;2022-09-27T16:02:02;17.60;99.90
12504;DHT22;6316;48.118;-1.690;2022-09-27T16:04:28;17.50;99.90
12504;DHT22;6316;48.118;-1.690;2022-09-27T16:06:59;17.50;99.90
12504;DHT22;6316;48.118;-1.690;2022-09-27T16:09:25;17.50;99.90
12504;DHT22;6316;48.118;-1.690;2022-09-27T16:11:51;17.40;99.90
12504;DHT22;6316;48.118;-1.690;2022-09-27T16:14:17;17.40;99.90
12504;DHT22;6316;48.118;-1.690;2022-09-27T16:16:52;17.40;99.90
12504;DHT22;6316;48.118;-1.690;2022-09-27T16:19:19;17.40;99.90
12504;DHT22;6316;48.118;-1.690;2022-09-27T16:21:44;17.40;99.90
12504;DHT22;6316;48.118;-1.690;2022-09-27T16:24:13;17.40;99.90
12504;DHT22;6316;48.118;-1.690;2022-09-27T16:26:39;17.40;99.90
12504;DHT22;6316;48.118;-1.690;2022-09-27T16:29:09;17.40;99.90
12504;DHT22;6316;48.118;-1.690;2022-09-27T16:31:37;17.40;99.90
12504;DHT22;6316;48.118;-1.690;2022-09-27T16:34:03;17.40;99.90
12504;DHT22;6316;48.118;-1.690;2022-09-27T16:36:29;17.40;99.90
12504;DHT22;6316;48.118;-1.690;2022-09-27T16:38:54;17.30;99.90
12504;DHT22;6316;48.118;-1.690;2022-09-27T16:41:21;17.30;99.90
12504;DHT22;6316;48.118;-1.690;2022-09-27T16:43:47;17.30;99.90
12504;DHT22;6316;48.118;-1.690;2022-09-27T16:46:14;17.30;99.90
12504;DHT22;6316;48.118;-1.690;2022-09-27T16:48:43;17.30;99.90
12504;DHT22;6316;48.118;-1.690;2022-09-27T16:53:58;17.30;99.90
12504;DHT22;6316;48.118;-1.690;2022-09-27T16:56:24;17.30;99.90
12504;DHT22;6316;48.118;-1.690;2022-09-27T16:58:49;17.30;99.90
12504;DHT22;6316;48.118;-1.690;2022-09-27T17:01:15;17.30;99.90
12504;DHT22;6316;48.118;-1.690;2022-09-27T17:03:48;17.30;99.90
12504;DHT22;6316;48.118;-1.690;2022-09-27T17:06:15;17.30;99.90
12504;DHT22;6316;48.118;-1.690;2022-09-27T17:08:41;17.30;99.90
12504;DHT22;6316;48.118;-1.690;2022-09-27T17:11:06;17.30;99.90
12504;DHT22;6316;48.118;-1.690;2022-09-27T17:13:32;17.30;99.90
12504;DHT22;6316;48.118;-1.690;2022-09-27T17:15:58;17.30;99.90
12504;DHT22;6316;48.118;-1.690;2022-09-27T17:18:27;17.30;99.90
12504;DHT22;6316;48.118;-1.690;2022-09-27T17:20:52;17.30;99.90
12504;DHT22;6316;48.118;-1.690;2022-09-27T17:23:24;17.20;99.90
12504;DHT22;6316;48.118;-1.690;2022-09-27T17:25:50;17.20;99.90
12504;DHT22;6316;48.118;-1.690;2022-09-27T17:28:21;17.20;99.90
12504;DHT22;6316;48.118;-1.690;2022-09-27T17:30:46;17.20;99.90
12504;DHT22;6316;48.118;-1.690;2022-09-27T17:33:12;17.20;99.90
12504;DHT22;6316;48.118;-1.690;2022-09-27T17:35:38;17.10;99.90
12504;DHT22;6316;48.118;-1.690;2022-09-27T17:38:04;17.10;99.90
12504;DHT22;6316;48.118;-1.690;2022-09-27T17:40:30;17.10;99.90
12504;DHT22;6316;48.118;-1.690;2022-09-27T17:42:56;17.10;99.90
12504;DHT22;6316;48.118;-1.690;2022-09-27T17:45:22;17.00;99.90
12504;DHT22;6316;48.118;-1.690;2022-09-27T17:47:48;17.00;99.90
12504;DHT22;6316;48.118;-1.690;2022-09-27T17:50:32;17.00;99.90
12504;DHT22;6316;48.118;-1.690;2022-09-27T17:52:58;17.00;99.90
12504;DHT22;6316;48.118;-1.690;2022-09-27T17:55:24;16.90;99.90
12504;DHT22;6316;48.118;-1.690;2022-09-27T17:57:50;17.00;99.90
12504;DHT22;6316;48.118;-1.690;2022-09-27T18:00:17;17.00;99.90
12504;DHT22;6316;48.118;-1.690;2022-09-27T18:02:43;17.00;99.90
12504;DHT22;6316;48.118;-1.690;2022-09-27T18:05:12;17.00;99.90
12504;DHT22;6316;48.118;-1.690;2022-09-27T18:07:38;17.00;99.90
12504;DHT22;6316;48.118;-1.690;2022-09-27T18:10:04;17.00;99.90
12504;DHT22;6316;48.118;-1.690;2022-09-27T18:12:29;17.00;99.90
12504;DHT22;6316;48.118;-1.690;2022-09-27T18:15:00;17.00;99.90
12504;DHT22;6316;48.118;-1.690;2022-09-27T18:17:25;17.00;99.90
12504;DHT22;6316;48.118;-1.690;2022-09-27T18:19:53;17.10;99.90
12504;DHT22;6316;48.118;-1.690;2022-09-27T18:22:19;17.10;99.90
12504;DHT22;6316;48.118;-1.690;2022-09-27T18:24:44;17.10;99.90
12504;DHT22;6316;48.118;-1.690;2022-09-27T18:27:10;17.10;99.90
12504;DHT22;6316;48.118;-1.690;2022-09-27T18:29:41;17.10;99.90
12504;DHT22;6316;48.118;-1.690;2022-09-27T18:32:07;17.10;99.90
12504;DHT22;6316;48.118;-1.690;2022-09-27T18:34:33;17.10;99.90
12504;DHT22;6316;48.118;-1.690;2022-09-27T18:36:58;17.10;99.90
12504;DHT22;6316;48.118;-1.690;2022-09-27T18:39:24;17.10;99.90
12504;DHT22;6316;48.118;-1.690;2022-09-27T18:41:49;17.10;99.90
12504;DHT22;6316;48.118;-1.690;2022-09-27T18:44:17;17.20;99.90